createdAt,value
2023-01-20T00:01:40.021Z,18.77
2023-01-20T00:04:07.307Z,18.53
2023-01-20T00:06:34.282Z,18.90
2023-01-20T00:09:04.460Z,19.87
2023-01-20T00:11:31.820Z,18.50
2023-01-20T00:14:02.143Z,19.20
2023-01-20T00:16:32.147Z,19.40
2023-01-20T00:18:59.905Z,18.67
2023-01-20T00:21:26.891Z,17.37
2023-01-20T00:23:54.628Z,17.77
2023-01-20T00:26:24.463Z,17.10
2023-01-20T00:28:55.038Z,18.13
2023-01-20T00:31:28.488Z,17.30
2023-01-20T00:34:01.139Z,18.23
2023-01-20T00:36:31.603Z,18.80
2023-01-20T00:38:59.144Z,17.93
2023-01-20T00:41:26.147Z,17.13
2023-01-20T00:43:54.212Z,17.53
2023-01-20T00:46:22.980Z,18.47
2023-01-20T00:48:49.985Z,17.63
2023-01-20T00:55:49.118Z,15.70
2023-01-20T00:58:16.957Z,17.90
2023-01-20T01:00:48.327Z,17.63
2023-01-20T01:03:16.098Z,18.00
2023-01-20T01:05:46.504Z,18.53
2023-01-20T01:08:14.379Z,19.13
2023-01-20T01:10:41.557Z,18.97
2023-01-20T01:13:08.999Z,18.17
2023-01-20T01:15:36.661Z,18.13
2023-01-20T01:18:04.017Z,17.60
2023-01-20T01:20:31.361Z,16.80
2023-01-20T01:22:58.377Z,17.30
2023-01-20T01:25:25.336Z,18.03
2023-01-20T01:27:52.475Z,18.77
2023-01-20T01:30:19.606Z,17.30
2023-01-20T01:32:47.464Z,18.30
2023-01-20T01:35:14.909Z,16.90
2023-01-20T01:37:42.008Z,17.33
2023-01-20T01:40:10.427Z,17.83
2023-01-20T01:42:38.090Z,19.23
2023-01-20T01:45:11.445Z,18.57
2023-01-20T01:47:52.953Z,17.50
2023-01-20T01:50:45.617Z,17.53
2023-01-20T01:53:14.942Z,16.37
2023-01-20T01:55:50.665Z,17.20
2023-01-20T01:58:24.791Z,17.43
2023-01-20T02:00:52.636Z,15.67
2023-01-20T02:03:21.052Z,16.10
2023-01-20T02:05:52.740Z,16.63
2023-01-20T02:08:20.408Z,17.17
2023-01-20T02:10:47.322Z,16.00
2023-01-20T02:13:14.572Z,16.57
2023-01-20T02:16:10.447Z,16.53
2023-01-20T02:19:15.406Z,16.17
2023-01-20T02:22:05.766Z,15.67
2023-01-20T02:24:59.085Z,16.67
2023-01-20T02:28:09.366Z,15.83
2023-01-20T02:31:16.812Z,14.57
2023-01-20T02:34:08.162Z,15.90
2023-01-20T02:37:12.842Z,15.40
2023-01-20T02:40:25.390Z,15.03
2023-01-20T02:43:12.396Z,14.90
2023-01-20T02:45:59.034Z,16.47
2023-01-20T02:48:39.802Z,15.90
2023-01-20T02:51:29.939Z,16.17
2023-01-20T02:54:04.194Z,16.10
2023-01-20T02:56:35.010Z,14.47
2023-01-20T02:59:20.086Z,15.57
2023-01-20T03:01:57.991Z,14.57
2023-01-20T03:04:36.278Z,15.13
2023-01-20T03:07:05.784Z,15.37
2023-01-20T03:09:43.595Z,14.80
2023-01-20T03:12:28.070Z,14.23
2023-01-20T03:14:55.216Z,15.13
2023-01-20T03:17:37.862Z,14.63
2023-01-20T03:20:05.805Z,13.27
2023-01-20T03:22:33.215Z,15.50
2023-01-20T03:25:01.317Z,15.87
2023-01-20T03:27:28.255Z,15.73
2023-01-20T03:29:55.319Z,16.03
2023-01-20T03:32:26.801Z,16.33
2023-01-20T03:34:58.589Z,15.00
2023-01-20T03:37:25.619Z,16.23
2023-01-20T03:39:52.751Z,17.60
2023-01-20T03:42:39.570Z,17.83
2023-01-20T03:45:40.893Z,18.87
2023-01-20T03:48:40.050Z,17.10
2023-01-20T03:51:42.751Z,16.90
2023-01-20T03:54:16.482Z,17.23
2023-01-20T03:57:04.119Z,17.73
2023-01-20T03:59:37.051Z,18.70
2023-01-20T04:02:08.035Z,19.60
2023-01-20T04:04:41.615Z,18.17
2023-01-20T04:07:18.546Z,18.13
2023-01-20T04:09:52.785Z,18.10
2023-01-20T04:12:20.012Z,17.33
2023-01-20T04:14:47.009Z,18.80
2023-01-20T04:17:14.635Z,19.23
2023-01-20T04:19:41.535Z,18.83
2023-01-20T04:22:27.241Z,17.73
2023-01-20T04:25:02.622Z,18.30
2023-01-20T04:27:29.950Z,19.43
2023-01-20T04:29:56.835Z,18.93
2023-01-20T04:32:23.913Z,18.33
2023-01-20T04:34:52.419Z,18.17
2023-01-20T04:37:19.507Z,16.97
2023-01-20T04:39:46.369Z,17.40
2023-01-20T04:42:13.374Z,17.70
2023-01-20T04:44:43.220Z,17.90
2023-01-20T04:47:10.260Z,18.03
2023-01-20T04:49:38.183Z,17.93
2023-01-20T04:52:05.421Z,16.33
2023-01-20T04:54:32.441Z,16.67
2023-01-20T04:57:00.259Z,16.67
2023-01-20T04:59:27.254Z,17.97
2023-01-20T05:01:54.445Z,17.87
2023-01-20T05:04:21.655Z,16.43
2023-01-20T05:06:48.724Z,17.73
2023-01-20T05:09:16.686Z,17.30
2023-01-20T05:11:44.299Z,18.93
2023-01-20T05:14:12.756Z,17.27
2023-01-20T05:16:40.050Z,17.80
2023-01-20T05:19:07.071Z,17.33
2023-01-20T05:21:34.308Z,17.00
2023-01-20T05:24:01.207Z,17.47
2023-01-20T05:26:28.255Z,16.73
2023-01-20T05:28:55.289Z,16.17
2023-01-20T05:31:23.339Z,17.00
2023-01-20T05:33:50.406Z,17.30
2023-01-20T05:36:17.620Z,17.00
2023-01-20T05:38:44.517Z,17.10
2023-01-20T05:41:11.885Z,17.17
2023-01-20T05:43:38.873Z,16.97
2023-01-20T05:46:07.154Z,16.87
2023-01-20T05:48:34.170Z,16.63
2023-01-20T05:51:01.116Z,15.97
2023-01-20T05:53:28.073Z,16.13
2023-01-20T05:56:04.513Z,15.20
2023-01-20T05:58:32.323Z,15.23
2023-01-20T06:01:09.561Z,15.43
2023-01-20T06:03:37.868Z,14.93
2023-01-20T06:06:08.959Z,15.50
2023-01-20T06:08:36.179Z,15.03
2023-01-20T06:11:03.099Z,15.57
2023-01-20T06:13:30.261Z,15.53
2023-01-20T06:15:58.076Z,16.17
2023-01-20T06:18:25.453Z,16.70
2023-01-20T06:20:52.522Z,15.23
2023-01-20T06:23:19.464Z,16.00
2023-01-20T06:25:46.331Z,15.80
2023-01-20T06:28:13.278Z,15.73
2023-01-20T06:30:43.240Z,16.20
2023-01-20T06:33:10.860Z,16.53
2023-01-20T06:35:38.222Z,15.63
2023-01-20T06:38:05.268Z,16.93
2023-01-20T06:40:32.266Z,16.17
2023-01-20T06:42:59.608Z,16.30
2023-01-20T06:45:26.653Z,15.73
2023-01-20T06:47:53.611Z,15.97
2023-01-20T06:50:20.519Z,16.23
2023-01-20T06:52:47.569Z,15.40
2023-01-20T06:55:14.905Z,16.73
2023-01-20T06:57:42.809Z,15.27
2023-01-20T07:00:11.327Z,15.87
2023-01-20T07:02:38.560Z,15.53
2023-01-20T07:05:08.088Z,15.97
2023-01-20T07:07:35.346Z,14.93
2023-01-20T07:10:03.806Z,15.33
2023-01-20T07:12:30.914Z,15.77
2023-01-20T07:14:57.911Z,14.23
2023-01-20T07:17:25.071Z,14.37
2023-01-20T07:19:52.297Z,16.17
2023-01-20T07:22:19.358Z,15.40
2023-01-20T07:24:46.289Z,15.43
2023-01-20T07:27:15.102Z,14.57
2023-01-20T07:29:42.282Z,15.57
2023-01-20T07:32:09.271Z,14.07
2023-01-20T07:34:36.289Z,15.20
2023-01-20T07:37:03.557Z,15.27
2023-01-20T07:39:30.593Z,15.17
2023-01-20T07:41:57.540Z,15.90
2023-01-20T07:44:25.094Z,16.13
2023-01-20T07:46:53.000Z,15.53
2023-01-20T07:49:19.904Z,15.43
2023-01-20T07:51:46.825Z,15.17
2023-01-20T07:54:14.055Z,15.87
2023-01-20T07:56:41.402Z,15.73
2023-01-20T07:59:10.523Z,15.60
2023-01-20T08:01:38.508Z,16.50
2023-01-20T08:04:05.559Z,14.93
2023-01-20T08:06:33.543Z,14.77
2023-01-20T08:09:02.367Z,14.67
2023-01-20T08:11:29.641Z,13.07
2023-01-20T08:13:56.712Z,12.13
2023-01-20T08:16:23.833Z,12.03
2023-01-20T08:18:54.923Z,11.43
2023-01-20T08:21:32.826Z,12.10
2023-01-20T08:24:04.609Z,12.20
2023-01-20T08:26:32.914Z,11.57
2023-01-20T08:29:09.552Z,11.40
2023-01-20T08:31:37.497Z,11.07
2023-01-20T08:34:05.417Z,10.90
2023-01-20T08:36:37.006Z,11.27
2023-01-20T08:39:07.884Z,12.13
2023-01-20T08:41:38.500Z,11.43
2023-01-20T08:44:08.219Z,11.00
2023-01-20T08:46:40.431Z,11.87
2023-01-20T08:49:15.727Z,10.80
2023-01-20T08:51:44.816Z,12.43
2023-01-20T08:54:12.078Z,12.60
2023-01-20T08:56:39.108Z,12.23
2023-01-20T08:59:06.510Z,11.47
2023-01-20T09:01:38.310Z,12.23
2023-01-20T09:04:07.333Z,11.80
2023-01-20T09:06:45.953Z,12.37
2023-01-20T09:09:16.036Z,11.87
2023-01-20T09:11:50.443Z,12.57
2023-01-20T09:14:20.474Z,12.40
2023-01-20T09:16:48.677Z,12.30
2023-01-20T09:19:16.172Z,12.37
2023-01-20T09:21:44.839Z,11.73
2023-01-20T09:24:11.979Z,10.13
2023-01-20T09:26:39.005Z,10.53
2023-01-20T09:29:14.321Z,10.17
2023-01-20T09:31:45.705Z,10.20
2023-01-20T09:34:19.696Z,10.17
2023-01-20T09:36:57.938Z,9.97
2023-01-20T09:39:43.940Z,9.47
2023-01-20T09:42:50.241Z,9.57
2023-01-20T09:45:36.500Z,9.67
2023-01-20T09:48:43.879Z,9.43
2023-01-20T09:51:44.600Z,9.30
2023-01-20T09:54:29.088Z,8.33
2023-01-20T09:57:00.547Z,8.93
2023-01-20T09:59:37.781Z,8.53
2023-01-20T10:02:17.516Z,9.00
2023-01-20T10:05:13.396Z,8.50
2023-01-20T10:07:50.660Z,8.50
2023-01-20T10:10:33.089Z,7.70
2023-01-20T10:13:26.259Z,8.30
2023-01-20T10:15:57.708Z,7.67
2023-01-20T10:18:34.202Z,7.03
2023-01-20T10:21:22.229Z,6.50
2023-01-20T10:24:28.948Z,6.47
2023-01-20T10:27:04.240Z,6.50
2023-01-20T10:29:58.850Z,6.83
2023-01-20T10:32:36.859Z,6.27
2023-01-20T10:35:25.185Z,6.17
2023-01-20T10:37:55.719Z,6.33
2023-01-20T10:40:42.287Z,6.80
2023-01-20T10:43:16.985Z,6.33
2023-01-20T10:46:10.371Z,6.60
2023-01-20T10:49:25.577Z,6.53
2023-01-20T10:52:17.779Z,6.50
2023-01-20T10:55:30.091Z,6.37
2023-01-20T10:58:14.387Z,6.53
2023-01-20T11:00:44.048Z,7.20
2023-01-20T11:03:19.063Z,6.43
2023-01-20T11:05:49.353Z,7.60
2023-01-20T11:08:25.925Z,6.97
2023-01-20T11:10:59.425Z,7.13
2023-01-20T11:13:26.629Z,6.47
2023-01-20T11:16:07.026Z,6.33
2023-01-20T11:18:36.270Z,7.00
2023-01-20T11:21:08.470Z,7.07
2023-01-20T11:23:38.038Z,6.63
2023-01-20T11:26:10.966Z,7.03
2023-01-20T11:28:53.941Z,7.30
2023-01-20T11:31:34.979Z,7.20
2023-01-20T11:34:28.130Z,6.90
2023-01-20T11:37:39.547Z,7.47
2023-01-20T11:40:28.294Z,7.10
2023-01-20T11:42:55.527Z,6.93
2023-01-20T11:45:33.257Z,8.13
2023-01-20T11:48:16.902Z,8.20
2023-01-20T11:50:57.706Z,8.40
2023-01-20T11:53:28.807Z,8.77
2023-01-20T11:56:14.646Z,8.87
2023-01-20T11:58:57.570Z,7.90
2023-01-20T12:01:49.312Z,8.87
2023-01-20T12:04:35.709Z,7.80
2023-01-20T12:07:25.150Z,9.00
2023-01-20T12:09:59.531Z,8.53
2023-01-20T12:12:34.034Z,8.73
2023-01-20T12:15:16.882Z,8.73
2023-01-20T12:18:18.868Z,8.47
2023-01-20T12:21:05.632Z,9.33
2023-01-20T12:24:01.586Z,8.87
2023-01-20T12:26:31.716Z,9.93
2023-01-20T12:29:44.720Z,9.23
2023-01-20T12:32:11.914Z,9.70
2023-01-20T12:34:39.118Z,10.30
2023-01-20T12:37:35.654Z,10.97
2023-01-20T12:40:24.284Z,9.73
2023-01-20T12:43:11.525Z,9.63
2023-01-20T12:46:03.064Z,10.47
2023-01-20T12:48:55.878Z,10.27
2023-01-20T12:51:59.722Z,9.93
2023-01-20T12:54:51.636Z,9.80
2023-01-20T12:58:00.985Z,11.00
2023-01-20T13:00:55.881Z,10.67
2023-01-20T13:03:48.764Z,10.90
2023-01-20T13:06:50.344Z,11.07
2023-01-20T13:09:54.412Z,10.50
2023-01-20T13:13:02.815Z,9.60
2023-01-20T13:15:42.733Z,10.60
2023-01-20T13:18:51.148Z,10.37
2023-01-20T13:21:21.072Z,8.93
2023-01-20T13:23:53.195Z,8.47
2023-01-20T13:26:20.779Z,7.47
2023-01-20T13:28:54.684Z,6.90
2023-01-20T13:31:36.540Z,8.47
2023-01-20T13:34:21.671Z,7.83
2023-01-20T13:37:04.250Z,8.43
2023-01-20T13:39:43.301Z,8.87
2023-01-20T13:42:31.090Z,8.63
2023-01-20T13:45:13.324Z,8.97
2023-01-20T13:48:19.220Z,9.07
2023-01-20T13:50:47.651Z,7.27
2023-01-20T13:53:34.984Z,8.37
2023-01-20T13:56:32.909Z,8.23
2023-01-20T13:58:59.993Z,7.97
2023-01-20T14:01:28.420Z,9.47
2023-01-20T14:04:19.601Z,9.37
2023-01-20T14:06:50.546Z,7.70
2023-01-20T14:09:24.366Z,9.17
2023-01-20T14:11:57.594Z,9.27
2023-01-20T14:14:27.301Z,9.67
2023-01-20T14:16:56.603Z,9.00
2023-01-20T14:19:34.089Z,8.87
2023-01-20T14:22:31.996Z,9.27
2023-01-20T14:25:00.740Z,8.77
2023-01-20T14:27:35.506Z,9.17
2023-01-20T14:30:26.848Z,8.87
2023-01-20T14:32:54.424Z,9.70
2023-01-20T14:35:34.148Z,9.60
2023-01-20T14:38:02.101Z,9.00
2023-01-20T14:40:34.208Z,9.80
2023-01-20T14:43:22.578Z,10.27
2023-01-20T14:45:52.739Z,10.70
2023-01-20T14:48:33.919Z,10.27
2023-01-20T14:51:04.237Z,10.27
2023-01-20T14:53:31.506Z,10.47
2023-01-20T14:56:08.708Z,9.97
2023-01-20T14:58:36.443Z,10.40
2023-01-20T15:01:06.628Z,9.63
2023-01-20T15:03:33.707Z,10.93
2023-01-20T15:06:11.125Z,10.97
2023-01-20T15:08:38.823Z,11.37
2023-01-20T15:11:21.255Z,11.57
2023-01-20T15:13:53.043Z,11.50
2023-01-20T15:16:26.252Z,12.37
2023-01-20T15:19:16.606Z,12.10
2023-01-20T15:21:52.931Z,12.40
2023-01-20T15:24:30.466Z,11.67
2023-01-20T15:27:00.683Z,11.20
2023-01-20T15:29:36.649Z,11.20
2023-01-20T15:32:11.740Z,11.20
2023-01-20T15:34:38.788Z,11.93
2023-01-20T15:37:18.523Z,11.43
2023-01-20T15:39:45.710Z,10.70
2023-01-20T15:42:15.199Z,11.97
2023-01-20T15:44:42.466Z,12.17
2023-01-20T15:47:25.857Z,12.57
2023-01-20T15:49:53.083Z,13.63
2023-01-20T15:52:20.074Z,13.67
2023-01-20T15:54:47.025Z,11.63
2023-01-20T15:57:16.852Z,12.03
2023-01-20T15:59:49.803Z,14.00
2023-01-20T16:02:23.682Z,13.50
2023-01-20T16:04:50.868Z,12.40
2023-01-20T16:07:20.550Z,11.93
2023-01-20T16:09:47.660Z,13.43
2023-01-20T16:12:17.773Z,13.13
2023-01-20T16:14:45.402Z,12.13
2023-01-20T16:17:20.983Z,12.20
2023-01-20T16:19:49.931Z,12.33
2023-01-20T16:22:17.341Z,13.10
2023-01-20T16:24:44.369Z,13.63
2023-01-20T16:27:19.615Z,13.43
2023-01-20T16:29:47.069Z,14.27
2023-01-20T16:32:17.057Z,14.03
2023-01-20T16:34:45.496Z,13.73
2023-01-20T16:37:14.740Z,15.27
2023-01-20T16:39:41.845Z,16.10
2023-01-20T16:42:16.145Z,16.53
2023-01-20T16:44:43.155Z,15.23
2023-01-20T16:47:10.105Z,17.93
2023-01-20T16:49:37.206Z,14.47
2023-01-20T16:52:06.839Z,15.50
2023-01-20T16:54:33.803Z,13.37
2023-01-20T16:57:00.740Z,15.07
2023-01-20T16:59:27.776Z,15.87
2023-01-20T17:01:55.231Z,16.30
2023-01-20T17:04:22.733Z,15.43
2023-01-20T17:06:53.511Z,15.83
2023-01-20T17:09:20.462Z,15.83
2023-01-20T17:11:47.463Z,16.03
2023-01-20T17:14:15.569Z,15.77
2023-01-20T17:16:42.661Z,14.17
2023-01-20T17:19:10.297Z,13.97
2023-01-20T17:21:39.258Z,13.77
2023-01-20T17:24:07.272Z,12.80
2023-01-20T17:26:34.733Z,10.70
2023-01-20T17:29:05.069Z,11.13
2023-01-20T17:31:36.656Z,9.87
2023-01-20T17:34:09.428Z,9.70
2023-01-20T17:36:36.640Z,10.03
2023-01-20T17:39:05.560Z,12.27
2023-01-20T17:41:33.878Z,10.77
2023-01-20T17:44:01.004Z,12.23
2023-01-20T17:46:30.429Z,12.20
2023-01-20T17:49:04.713Z,11.57
2023-01-20T17:51:31.903Z,10.60
2023-01-20T17:54:02.442Z,10.23
2023-01-20T17:56:31.672Z,11.30
2023-01-20T17:58:58.631Z,12.03
2023-01-20T18:01:28.948Z,12.63
2023-01-20T18:03:58.749Z,11.83
2023-01-20T18:06:27.680Z,11.97
2023-01-20T18:09:01.255Z,12.10
2023-01-20T18:11:35.101Z,12.03
2023-01-20T18:14:04.746Z,12.77
2023-01-20T18:16:38.986Z,11.60
2023-01-20T18:19:07.305Z,11.80
2023-01-20T18:21:37.164Z,13.90
2023-01-20T18:24:10.433Z,12.60
2023-01-20T18:26:39.997Z,14.13
2023-01-20T18:29:14.191Z,13.13
2023-01-20T18:31:42.001Z,13.23
2023-01-20T18:34:16.385Z,14.30
2023-01-20T18:36:46.553Z,15.63
2023-01-20T18:39:21.748Z,15.43
2023-01-20T18:41:51.066Z,14.00
2023-01-20T18:44:19.691Z,13.60
2023-01-20T18:46:49.436Z,14.80
2023-01-20T18:49:19.574Z,14.23
2023-01-20T18:51:46.826Z,13.37
2023-01-20T18:54:18.685Z,14.23
2023-01-20T18:56:45.751Z,12.13
2023-01-20T18:59:13.585Z,14.33
2023-01-20T19:01:41.827Z,13.47
2023-01-20T19:04:12.227Z,14.40
2023-01-20T19:06:43.749Z,14.33
2023-01-20T19:09:11.894Z,13.87
2023-01-20T19:11:41.417Z,14.83
2023-01-20T19:14:13.538Z,14.97
2023-01-20T19:16:45.143Z,13.53
2023-01-20T19:19:13.586Z,14.93
2023-01-20T19:21:40.775Z,15.53
2023-01-20T19:24:10.857Z,13.93
2023-01-20T19:26:39.263Z,13.73
2023-01-20T19:29:11.827Z,14.47
2023-01-20T19:31:40.426Z,16.23
2023-01-20T19:34:09.379Z,16.50
2023-01-20T19:36:37.203Z,14.93
2023-01-20T19:39:05.011Z,16.50
2023-01-20T19:41:35.769Z,16.43
2023-01-20T19:44:07.360Z,15.70
2023-01-20T19:46:38.899Z,15.00
2023-01-20T19:49:06.850Z,14.10
2023-01-20T19:51:34.120Z,14.43
2023-01-20T19:54:02.614Z,13.83
2023-01-20T19:56:33.293Z,14.50
2023-01-20T19:59:01.319Z,14.90
2023-01-20T20:01:32.471Z,14.00
2023-01-20T20:04:09.485Z,14.60
2023-01-20T20:06:47.890Z,14.00
2023-01-20T20:09:21.213Z,13.27
2023-01-20T20:11:49.778Z,13.27
2023-01-20T20:14:20.832Z,14.30
2023-01-20T20:16:49.170Z,13.47
2023-01-20T20:19:19.248Z,13.90
2023-01-20T20:21:47.132Z,14.73
2023-01-20T20:24:17.846Z,14.97
2023-01-20T20:26:46.725Z,14.70
2023-01-20T20:29:16.817Z,13.83
2023-01-20T20:31:44.305Z,13.93
2023-01-20T20:34:17.525Z,14.70
2023-01-20T20:36:45.125Z,13.90
2023-01-20T20:39:18.345Z,13.67
2023-01-20T20:41:46.373Z,14.97
2023-01-20T20:44:13.700Z,15.77
2023-01-20T20:46:41.247Z,16.13
2023-01-20T20:49:13.972Z,14.47
2023-01-20T20:51:42.376Z,15.13
2023-01-20T20:54:12.237Z,14.27
2023-01-20T20:56:39.265Z,15.13
2023-01-20T20:59:06.431Z,16.03
2023-01-20T21:01:34.761Z,16.73
2023-01-20T21:04:05.799Z,17.87
2023-01-20T21:06:33.728Z,16.13
2023-01-20T21:09:00.800Z,17.03
2023-01-20T21:11:28.778Z,18.33
2023-01-20T21:13:56.504Z,19.00
2023-01-20T21:16:24.572Z,19.67
2023-01-20T21:18:56.131Z,19.83
2023-01-20T21:21:25.339Z,19.63
2023-01-20T21:23:56.705Z,18.63
2023-01-20T21:26:28.200Z,20.37
2023-01-20T21:28:57.700Z,20.47
2023-01-20T21:31:28.359Z,20.53
2023-01-20T21:33:58.815Z,20.07
2023-01-20T21:36:27.985Z,20.53
2023-01-20T21:38:55.131Z,19.73
2023-01-20T21:41:22.182Z,20.93
2023-01-20T21:44:09.114Z,20.57
2023-01-20T21:46:40.665Z,21.37
2023-01-20T21:49:30.285Z,21.27
2023-01-20T21:52:16.332Z,20.53
2023-01-20T21:54:45.308Z,21.70
2023-01-20T21:57:13.855Z,23.43
2023-01-20T21:59:43.190Z,21.57
2023-01-20T22:02:13.909Z,20.83
2023-01-20T22:04:42.227Z,22.03
2023-01-20T22:07:10.395Z,24.57
2023-01-20T22:09:40.546Z,23.93
2023-01-20T22:12:08.281Z,24.03
2023-01-20T22:14:35.383Z,22.07
2023-01-20T22:17:02.755Z,21.07
2023-01-20T22:19:30.134Z,22.00
2023-01-20T22:21:58.473Z,23.10
2023-01-20T22:24:25.736Z,20.30
2023-01-20T22:26:53.348Z,20.93
2023-01-20T22:29:20.873Z,20.00
2023-01-20T22:31:53.121Z,20.47
2023-01-20T22:34:21.873Z,21.83
2023-01-20T22:36:48.932Z,21.03
2023-01-20T22:39:16.499Z,21.60
2023-01-20T22:41:43.932Z,21.20
2023-01-20T22:44:10.979Z,20.00
2023-01-20T22:46:38.010Z,20.80
2023-01-20T22:49:05.109Z,21.13
2023-01-20T22:51:32.533Z,23.60
2023-01-20T22:54:01.569Z,21.87
2023-01-20T22:56:32.132Z,20.87
2023-01-20T22:59:00.602Z,21.37
2023-01-20T23:01:32.609Z,21.43
2023-01-20T23:04:03.810Z,21.00
2023-01-20T23:06:34.263Z,22.53
2023-01-20T23:09:08.864Z,25.43
2023-01-20T23:11:38.190Z,22.50
2023-01-20T23:14:06.553Z,21.23
2023-01-20T23:16:33.755Z,24.77
2023-01-20T23:19:00.683Z,24.57
2023-01-20T23:21:27.722Z,24.20
2023-01-20T23:23:55.049Z,26.93
2023-01-20T23:26:29.114Z,26.83
2023-01-20T23:28:57.057Z,27.37
2023-01-20T23:31:26.011Z,25.67
2023-01-20T23:33:54.487Z,25.07
2023-01-20T23:36:25.194Z,27.07
2023-01-20T23:38:56.549Z,27.30
2023-01-20T23:41:24.812Z,27.03
2023-01-20T23:43:52.092Z,25.80
2023-01-20T23:46:21.905Z,25.60
2023-01-20T23:48:48.880Z,23.90
2023-01-20T23:51:16.199Z,25.10
2023-01-20T23:53:43.684Z,26.17
2023-01-20T23:56:20.236Z,26.97
2023-01-20T23:58:47.811Z,25.93
